createdAt,value
2019-01-20T00:01:22.114Z,14.63
2019-01-20T00:06:23.628Z,16.63
2019-01-20T00:11:25.290Z,16.20
2019-01-20T00:16:26.575Z,15.70
2019-01-20T00:21:27.862Z,16.83
2019-01-20T00:26:29.139Z,16.87
2019-01-20T00:31:30.789Z,15.60
2019-01-20T00:36:32.072Z,14.10
2019-01-20T00:41:33.338Z,15.13
2019-01-20T00:46:34.613Z,16.17
2019-01-20T00:51:36.269Z,16.13
2019-01-20T00:56:37.557Z,15.93
2019-01-20T01:01:38.858Z,16.13
2019-01-20T01:06:40.131Z,17.90
2019-01-20T01:11:41.734Z,15.27
2019-01-20T01:16:42.992Z,16.53
2019-01-20T01:21:44.329Z,17.20
2019-01-20T01:26:45.549Z,18.17
2019-01-20T01:31:46.820Z,17.57
2019-01-20T01:36:48.095Z,16.77
2019-01-20T01:41:49.367Z,20.60
2019-01-20T01:46:50.649Z,18.50
2019-01-20T01:51:51.923Z,17.17
2019-01-20T01:56:53.201Z,16.53
2019-01-20T02:01:54.488Z,17.23
2019-01-20T02:06:55.785Z,16.33
2019-01-20T02:11:57.472Z,16.23
2019-01-20T02:16:59.067Z,16.43
2019-01-20T02:22:00.347Z,16.23
2019-01-20T02:27:01.621Z,16.13
2019-01-20T02:32:03.939Z,16.10
2019-01-20T02:37:05.546Z,17.67
2019-01-20T02:42:07.159Z,16.50
2019-01-20T02:47:08.446Z,17.93
2019-01-20T02:52:09.722Z,16.47
2019-01-20T02:57:11.001Z,17.17
2019-01-20T03:02:12.405Z,16.83
2019-01-20T03:07:13.689Z,17.20
2019-01-20T03:12:14.981Z,17.37
2019-01-20T03:17:16.613Z,16.47
2019-01-20T03:22:17.896Z,16.57
2019-01-20T03:27:19.175Z,16.57
2019-01-20T03:32:20.470Z,16.67
2019-01-20T03:37:21.758Z,16.97
2019-01-20T03:42:23.029Z,15.87
2019-01-20T03:47:24.305Z,16.43
2019-01-20T03:52:25.943Z,16.83
2019-01-20T03:57:27.225Z,16.57
2019-01-20T04:02:28.546Z,18.43
2019-01-20T04:07:29.824Z,19.33
2019-01-20T04:12:31.114Z,17.60
2019-01-20T04:17:32.403Z,17.43
2019-01-20T04:22:33.676Z,16.73
2019-01-20T04:27:35.321Z,17.37
2019-01-20T04:32:39.193Z,17.13
2019-01-20T04:37:40.469Z,16.07
2019-01-20T04:42:41.749Z,15.10
2019-01-20T04:47:43.385Z,15.50
2019-01-20T04:52:44.643Z,15.93
2019-01-20T04:57:47.851Z,15.10
2019-01-20T05:02:49.164Z,16.27
2019-01-20T05:07:50.445Z,15.23
2019-01-20T05:12:52.029Z,14.33
2019-01-20T05:17:53.619Z,17.10
2019-01-20T05:22:54.892Z,15.73
2019-01-20T05:27:56.173Z,15.77
2019-01-20T05:32:57.434Z,16.83
2019-01-20T05:37:58.716Z,16.37
2019-01-20T05:42:59.992Z,15.80
2019-01-20T05:48:01.286Z,16.53
2019-01-20T05:53:02.579Z,16.13
2019-01-20T05:58:03.860Z,15.57
2019-01-20T06:03:05.161Z,17.07
2019-01-20T06:08:06.435Z,15.53
2019-01-20T06:13:07.712Z,15.97
2019-01-20T06:18:09.177Z,16.20
2019-01-20T06:23:10.453Z,15.40
2019-01-20T06:28:12.088Z,14.50
2019-01-20T06:33:13.667Z,15.77
2019-01-20T06:38:14.957Z,15.37
2019-01-20T06:43:16.226Z,15.40
2019-01-20T06:48:17.496Z,15.07
2019-01-20T06:53:19.142Z,15.23
2019-01-20T06:58:20.747Z,15.97
2019-01-20T07:03:22.077Z,17.47
2019-01-20T07:08:23.373Z,17.23
2019-01-20T07:13:24.690Z,17.60
2019-01-20T07:18:25.969Z,16.53
2019-01-20T07:23:27.601Z,18.80
2019-01-20T07:28:28.977Z,20.13
2019-01-20T07:33:30.241Z,22.55
2019-01-20T07:38:31.524Z,20.40
2019-01-20T07:43:32.801Z,19.03
2019-01-20T07:48:35.079Z,19.23
2019-01-20T07:53:38.240Z,18.50
2019-01-20T07:58:39.512Z,18.93
2019-01-20T08:03:41.129Z,21.87
2019-01-20T08:08:42.406Z,21.43
2019-01-20T08:13:43.681Z,21.80
2019-01-20T08:18:44.965Z,21.13
2019-01-20T08:23:46.238Z,21.20
2019-01-20T08:28:47.513Z,21.57
2019-01-20T08:33:48.786Z,21.40
2019-01-20T08:38:50.060Z,20.10
2019-01-20T08:43:51.337Z,17.80
2019-01-20T08:48:52.726Z,17.50
2019-01-20T08:53:53.992Z,21.20
2019-01-20T08:58:55.272Z,20.50
2019-01-20T09:03:56.573Z,20.87
2019-01-20T09:08:57.840Z,21.47
2019-01-20T09:13:59.117Z,20.57
2019-01-20T09:19:00.394Z,21.13
2019-01-20T09:24:01.662Z,21.33
2019-01-20T09:29:03.285Z,22.20
2019-01-20T09:34:04.557Z,21.57
2019-01-20T09:39:09.336Z,21.23
2019-01-20T09:44:10.598Z,25.52
2019-01-20T09:49:11.873Z,22.57
2019-01-20T09:54:13.153Z,24.03
2019-01-20T09:59:14.434Z,22.63
2019-01-20T10:04:16.056Z,23.27
2019-01-20T10:09:17.328Z,26.80
2019-01-20T10:14:18.613Z,33.03
2019-01-20T10:19:19.893Z,27.30
2019-01-20T10:24:21.171Z,25.40
2019-01-20T10:29:22.809Z,27.17
2019-01-20T10:34:24.100Z,27.80
2019-01-20T10:39:25.398Z,28.17
2019-01-20T10:44:26.657Z,26.83
2019-01-20T10:49:27.929Z,27.03
2019-01-20T10:54:29.545Z,33.60
2019-01-20T10:59:31.808Z,25.50
2019-01-20T11:04:33.017Z,26.23
2019-01-20T11:09:34.303Z,25.13
2019-01-20T11:14:35.583Z,25.93
2019-01-20T11:19:36.860Z,26.70
2019-01-20T11:24:38.138Z,26.67
2019-01-20T11:29:39.412Z,31.77
2019-01-20T11:34:40.685Z,28.87
2019-01-20T11:39:42.252Z,25.83
2019-01-20T11:44:43.548Z,27.77
2019-01-20T11:49:44.802Z,26.97
2019-01-20T11:54:46.081Z,26.07
2019-01-20T11:59:47.356Z,23.67
2019-01-20T12:04:48.653Z,22.63
2019-01-20T12:09:49.953Z,23.57
2019-01-20T12:14:51.605Z,24.90
2019-01-20T12:19:52.873Z,25.53
2019-01-20T12:24:54.144Z,25.73
2019-01-20T12:29:55.426Z,26.77
2019-01-20T12:34:56.692Z,30.90
2019-01-20T12:39:57.969Z,28.07
2019-01-20T12:44:59.622Z,28.53
2019-01-20T12:50:01.321Z,28.53
2019-01-20T12:55:03.947Z,27.37
2019-01-20T13:00:09.026Z,27.17
2019-01-20T13:05:23.661Z,27.30
2019-01-20T13:10:25.040Z,32.13
2019-01-20T13:15:26.444Z,26.17
2019-01-20T13:20:27.827Z,24.67
2019-01-20T13:25:29.110Z,26.13
2019-01-20T13:30:30.378Z,25.47
2019-01-20T13:35:31.786Z,27.57
2019-01-20T13:40:39.594Z,28.60
2019-01-20T13:45:40.873Z,25.53
2019-01-20T13:50:42.152Z,26.33
2019-01-20T13:55:43.427Z,24.77
2019-01-20T14:00:44.700Z,26.17
2019-01-20T14:05:46.289Z,29.20
2019-01-20T14:10:47.576Z,25.40
2019-01-20T14:15:48.835Z,24.23
2019-01-20T14:20:50.116Z,25.43
2019-01-20T14:25:51.382Z,27.53
2019-01-20T14:30:52.659Z,28.67
2019-01-20T14:35:53.928Z,27.50
2019-01-20T14:40:55.196Z,26.47
2019-01-20T14:45:56.882Z,26.17
2019-01-20T14:50:58.169Z,25.77
2019-01-20T14:56:00.232Z,25.73
2019-01-20T15:01:01.505Z,28.00
2019-01-20T15:06:03.181Z,26.83
2019-01-20T15:11:04.465Z,28.73
2019-01-20T15:16:05.761Z,29.00
2019-01-20T15:21:07.046Z,29.23
2019-01-20T15:26:08.304Z,28.63
2019-01-20T15:31:09.573Z,31.07
2019-01-20T15:36:10.876Z,31.70
2019-01-20T15:41:12.469Z,40.65
2019-01-20T15:46:13.870Z,30.37
2019-01-20T15:51:15.141Z,29.70
2019-01-20T15:56:16.784Z,28.87
2019-01-20T16:01:18.052Z,29.03
2019-01-20T16:06:19.354Z,36.87
2019-01-20T16:11:20.638Z,30.70
2019-01-20T16:16:21.915Z,29.90
2019-01-20T16:21:23.189Z,32.57
2019-01-20T16:26:24.461Z,32.90
2019-01-20T16:31:26.078Z,33.10
2019-01-20T16:36:27.360Z,32.83
2019-01-20T16:41:29.034Z,33.43
2019-01-20T16:46:30.305Z,43.55
2019-01-20T16:51:31.580Z,36.60
2019-01-20T16:56:32.859Z,33.33
2019-01-20T17:01:34.133Z,37.83
2019-01-20T17:06:35.477Z,32.93
2019-01-20T17:11:36.768Z,34.43
2019-01-20T17:16:38.060Z,34.60
2019-01-20T17:21:39.320Z,34.27
2019-01-20T17:26:40.605Z,34.20
2019-01-20T17:31:42.192Z,35.87
2019-01-20T17:36:43.466Z,38.30
2019-01-20T17:41:45.071Z,36.53
2019-01-20T17:46:46.353Z,35.80
2019-01-20T17:51:47.620Z,36.40
2019-01-20T17:56:48.886Z,37.60
2019-01-20T18:01:50.159Z,50.92
2019-01-20T18:06:51.458Z,39.77
2019-01-20T18:11:53.095Z,46.13
2019-01-20T18:16:54.357Z,38.10
2019-01-20T18:21:55.633Z,37.53
2019-01-20T18:26:56.914Z,38.27
2019-01-20T18:31:58.180Z,37.63
2019-01-20T18:36:59.440Z,38.77
2019-01-20T18:42:00.720Z,38.10
2019-01-20T18:47:01.996Z,38.47
2019-01-20T18:52:03.684Z,38.77
2019-01-20T18:57:04.924Z,37.10
2019-01-20T19:02:06.208Z,49.27
2019-01-20T19:07:07.507Z,41.23
2019-01-20T19:12:08.797Z,39.90
2019-01-20T19:17:10.065Z,41.70
2019-01-20T19:22:14.939Z,40.40
2019-01-20T19:27:14.816Z,35.07
2019-01-20T19:32:16.108Z,37.90
2019-01-20T19:37:17.987Z,36.97
2019-01-20T19:42:19.304Z,37.17
2019-01-20T19:47:20.597Z,37.30
2019-01-20T19:52:21.873Z,41.07
2019-01-20T19:57:23.155Z,37.80
2019-01-20T20:02:24.747Z,38.27
2019-01-20T20:07:26.351Z,40.07
2019-01-20T20:12:27.637Z,41.30
2019-01-20T20:17:30.126Z,39.30
2019-01-20T20:22:32.372Z,39.87
2019-01-20T20:27:33.577Z,40.53
2019-01-20T20:32:34.862Z,41.83
2019-01-20T20:37:36.214Z,41.47
2019-01-20T20:42:37.481Z,40.80
2019-01-20T20:47:38.766Z,42.63
2019-01-20T20:52:45.999Z,40.63
2019-01-20T20:57:43.528Z,41.57
2019-01-20T21:02:44.840Z,40.53
2019-01-20T21:07:46.105Z,41.27
2019-01-20T21:12:47.393Z,42.57
2019-01-20T21:17:48.762Z,40.23
2019-01-20T21:22:50.481Z,40.07
2019-01-20T21:27:51.724Z,38.83
2019-01-20T21:32:53.001Z,40.20
2019-01-20T21:37:54.707Z,43.27
2019-01-20T21:42:55.921Z,42.23
2019-01-20T21:47:57.200Z,44.43
2019-01-20T21:52:58.482Z,40.40
2019-01-20T21:57:59.774Z,38.23
2019-01-20T22:03:01.444Z,39.63
2019-01-20T22:08:02.713Z,38.87
2019-01-20T22:13:04.350Z,38.70
2019-01-20T22:18:05.778Z,51.85
2019-01-20T22:23:07.001Z,49.63
2019-01-20T22:28:08.282Z,39.50
2019-01-20T22:33:09.825Z,39.33
2019-01-20T22:38:11.087Z,37.40
2019-01-20T22:43:12.371Z,39.27
2019-01-20T22:48:13.652Z,38.07
2019-01-20T22:53:14.924Z,38.27
2019-01-20T22:58:16.580Z,38.27
2019-01-20T23:03:17.997Z,36.90
2019-01-20T23:08:19.305Z,35.77
2019-01-20T23:13:20.610Z,37.33
2019-01-20T23:18:22.277Z,38.67
2019-01-20T23:23:23.548Z,36.77
2019-01-20T23:28:24.821Z,40.33
2019-01-20T23:33:26.101Z,36.67
2019-01-20T23:38:27.374Z,37.60
2019-01-20T23:43:28.648Z,37.07
2019-01-20T23:48:30.297Z,38.13
2019-01-20T23:53:31.586Z,49.88
2019-01-20T23:58:32.859Z,39.47
